createdAt,value
2024-03-05T00:00:19.865Z,99802.78
2024-03-05T00:01:23.088Z,99807.75
2024-03-05T00:02:27.019Z,99805.13
2024-03-05T00:03:30.572Z,99805.53
2024-03-05T00:04:33.774Z,99809.53
2024-03-05T00:05:37.551Z,99808.94
2024-03-05T00:06:40.632Z,99805.50
2024-03-05T00:07:44.382Z,99804.63
2024-03-05T00:08:47.598Z,99810.56
2024-03-05T00:09:50.673Z,99811.56
2024-03-05T00:10:55.385Z,99805.31
2024-03-05T00:11:58.646Z,99801.16
2024-03-05T00:13:01.732Z,99810.28
2024-03-05T00:14:05.334Z,99806.00
2024-03-05T00:15:08.806Z,99809.75
2024-03-05T00:16:11.894Z,99810.06
2024-03-05T00:17:14.945Z,99806.75
2024-03-05T00:18:18.036Z,99812.88
2024-03-05T00:19:21.165Z,99813.78
2024-03-05T00:20:24.273Z,99818.66
2024-03-05T00:21:27.392Z,99817.56
2024-03-05T00:22:30.463Z,99812.91
2024-03-05T00:23:33.545Z,99818.44
2024-03-05T00:24:36.616Z,99817.84
2024-03-05T00:25:40.573Z,99816.22
2024-03-05T00:26:43.638Z,99822.03
2024-03-05T00:27:46.815Z,99821.75
2024-03-05T00:28:50.842Z,99826.56
2024-03-05T00:29:53.995Z,99814.28
2024-03-05T00:30:57.048Z,99821.97
2024-03-05T00:32:00.188Z,99823.94
2024-03-05T00:33:03.338Z,99821.44
2024-03-05T00:34:06.457Z,99824.19
2024-03-05T00:35:13.197Z,99824.03
2024-03-05T00:36:16.420Z,99807.47
2024-03-05T00:37:19.509Z,99809.25
2024-03-05T00:38:28.971Z,99813.97
2024-03-05T00:39:36.689Z,99814.94
2024-03-05T00:40:39.964Z,99812.31
2024-03-05T00:41:43.068Z,99810.66
2024-03-05T00:42:46.612Z,99813.97
2024-03-05T00:43:49.934Z,99810.38
2024-03-05T00:44:53.030Z,99816.59
2024-03-05T00:45:56.338Z,99804.19
2024-03-05T00:46:59.499Z,99806.81
2024-03-05T00:48:03.103Z,99810.38
2024-03-05T00:49:06.207Z,99816.22
2024-03-05T00:50:09.769Z,99811.84
2024-03-05T00:51:13.459Z,99807.69
2024-03-05T00:52:16.541Z,99810.44
2024-03-05T00:53:19.822Z,99809.50
2024-03-05T00:54:23.462Z,99814.06
2024-03-05T00:55:26.581Z,99803.69
2024-03-05T00:56:30.449Z,99812.66
2024-03-05T00:57:33.493Z,99805.22
2024-03-05T00:58:37.239Z,99808.41
2024-03-05T00:59:40.309Z,99804.28
2024-03-05T01:00:44.531Z,99809.09
2024-03-05T01:01:48.477Z,99809.63
2024-03-05T01:02:52.348Z,99806.59
2024-03-05T01:03:56.736Z,99810.75
2024-03-05T01:05:00.083Z,99816.69
2024-03-05T01:06:04.995Z,99815.69
2024-03-05T01:07:08.278Z,99808.94
2024-03-05T01:08:11.364Z,99816.28
2024-03-05T01:09:19.352Z,99816.97
2024-03-05T01:10:22.549Z,99812.66
2024-03-05T01:11:25.662Z,99823.44
2024-03-05T01:12:28.755Z,99819.59
2024-03-05T01:13:31.890Z,99815.00
2024-03-05T01:14:34.994Z,99825.78
2024-03-05T01:15:38.059Z,99819.88
2024-03-05T01:16:41.112Z,99819.03
2024-03-05T01:17:44.171Z,99821.00
2024-03-05T01:18:47.238Z,99815.19
2024-03-05T01:19:50.339Z,99815.19
2024-03-05T01:20:54.385Z,99813.94
2024-03-05T01:21:59.464Z,99812.66
2024-03-05T01:23:02.952Z,99812.00
2024-03-05T01:24:06.604Z,99814.47
2024-03-05T01:25:10.480Z,99814.75
2024-03-05T01:26:13.642Z,99817.69
2024-03-05T01:27:16.697Z,99808.28
2024-03-05T01:28:19.837Z,99814.22
2024-03-05T01:29:23.485Z,99815.19
2024-03-05T01:30:26.843Z,99809.38
2024-03-05T01:31:30.701Z,99814.34
2024-03-05T01:32:35.677Z,99809.53
2024-03-05T01:33:40.460Z,99809.53
2024-03-05T01:34:44.602Z,99816.28
2024-03-05T01:35:53.104Z,99812.13
2024-03-05T01:36:59.043Z,99816.84
2024-03-05T01:38:02.142Z,99809.66
2024-03-05T01:39:05.502Z,99811.91
2024-03-05T01:40:12.897Z,99806.19
2024-03-05T01:41:16.273Z,99811.91
2024-03-05T01:42:19.366Z,99815.75
2024-03-05T01:43:22.878Z,99816.56
2024-03-05T01:44:26.460Z,99814.81
2024-03-05T01:45:29.512Z,99812.03
2024-03-05T01:46:32.916Z,99811.91
2024-03-05T01:47:37.062Z,99818.78
2024-03-05T01:48:40.137Z,99808.28
2024-03-05T01:49:43.201Z,99817.44
2024-03-05T01:50:46.491Z,99820.19
2024-03-05T01:51:49.978Z,99822.69
2024-03-05T01:52:54.254Z,99817.44
2024-03-05T01:53:57.343Z,99812.84
2024-03-05T01:55:07.037Z,99824.31
2024-03-05T01:56:10.840Z,99818.78
2024-03-05T01:57:13.967Z,99813.81
2024-03-05T01:58:19.231Z,99815.34
2024-03-05T01:59:23.346Z,99818.25
2024-03-05T02:00:27.855Z,99817.97
2024-03-05T02:01:32.740Z,99815.22
2024-03-05T02:02:36.098Z,99812.72
2024-03-05T02:03:39.298Z,99819.09
2024-03-05T02:04:44.052Z,99814.00
2024-03-05T02:05:48.796Z,99809.31
2024-03-05T02:06:53.838Z,99813.88
2024-03-05T02:07:57.020Z,99816.91
2024-03-05T02:09:02.053Z,99806.41
2024-03-05T02:10:08.929Z,99809.56
2024-03-05T02:11:13.513Z,99818.25
2024-03-05T02:12:16.591Z,99806.41
2024-03-05T02:13:19.987Z,99814.28
2024-03-05T02:14:24.433Z,99814.81
2024-03-05T02:15:27.715Z,99816.09
2024-03-05T02:16:30.776Z,99816.09
2024-03-05T02:17:33.985Z,99817.72
2024-03-05T02:18:37.071Z,99815.22
2024-03-05T02:19:52.193Z,99811.09
2024-03-05T02:20:59.870Z,99816.63
2024-03-05T02:22:04.660Z,99812.31
2024-03-05T02:23:08.245Z,99819.41
2024-03-05T02:24:11.317Z,99823.53
2024-03-05T02:25:17.678Z,99822.97
2024-03-05T02:26:25.500Z,99825.88
2024-03-05T02:27:34.599Z,99833.22
2024-03-05T02:28:39.873Z,99836.22
2024-03-05T02:29:44.009Z,99833.63
2024-03-05T02:30:47.307Z,99834.31
2024-03-05T02:31:51.910Z,99834.59
2024-03-05T02:32:55.011Z,99840.53
2024-03-05T02:33:58.129Z,99837.91
2024-03-05T02:35:02.128Z,99837.91
2024-03-05T02:36:08.162Z,99839.56
2024-03-05T02:37:12.947Z,99836.97
2024-03-05T02:38:16.336Z,99836.78
2024-03-05T02:39:20.216Z,99837.34
2024-03-05T02:40:23.330Z,99843.28
2024-03-05T02:41:26.408Z,99839.28
2024-03-05T02:42:29.480Z,99842.19
2024-03-05T02:43:32.566Z,99839.97
2024-03-05T02:44:35.655Z,99838.72
2024-03-05T02:45:38.782Z,99850.84
2024-03-05T02:46:41.924Z,99846.84
2024-03-05T02:47:45.018Z,99837.47
2024-03-05T02:48:49.125Z,99838.44
2024-03-05T02:49:52.278Z,99842.31
2024-03-05T02:50:56.424Z,99834.31
2024-03-05T02:51:59.485Z,99847.81
2024-03-05T02:53:04.377Z,99839.94
2024-03-05T02:54:10.258Z,99844.47
2024-03-05T02:55:14.015Z,99846.53
2024-03-05T02:56:17.341Z,99838.41
2024-03-05T02:57:20.390Z,99846.53
2024-03-05T02:58:23.452Z,99844.31
2024-03-05T02:59:26.509Z,99842.41
2024-03-05T03:00:29.604Z,99838.53
2024-03-05T03:01:33.049Z,99836.75
2024-03-05T03:02:36.517Z,99843.53
2024-03-05T03:03:39.777Z,99842.84
2024-03-05T03:04:42.878Z,99838.94
2024-03-05T03:05:46.721Z,99839.53
2024-03-05T03:06:49.776Z,99838.94
2024-03-05T03:07:53.107Z,99844.47
2024-03-05T03:08:57.304Z,99843.94
2024-03-05T03:10:00.852Z,99846.69
2024-03-05T03:11:04.085Z,99842.56
2024-03-05T03:12:07.398Z,99844.75
2024-03-05T03:13:10.666Z,99844.47
2024-03-05T03:14:14.034Z,99845.31
2024-03-05T03:15:22.113Z,99838.94
2024-03-05T03:16:25.311Z,99843.91
2024-03-05T03:17:29.716Z,99845.13
2024-03-05T03:18:33.860Z,99841.84
2024-03-05T03:19:37.691Z,99847.34
2024-03-05T03:20:41.173Z,99841.13
2024-03-05T03:21:45.606Z,99843.50
2024-03-05T03:22:48.721Z,99841.97
2024-03-05T03:23:51.811Z,99844.72
2024-03-05T03:24:54.877Z,99843.09
2024-03-05T03:25:59.903Z,99846.38
2024-03-05T03:27:03.032Z,99847.19
2024-03-05T03:28:06.203Z,99840.97
2024-03-05T03:29:12.532Z,99848.56
2024-03-05T03:30:19.319Z,99845.09
2024-03-05T03:31:26.885Z,99855.06
2024-03-05T03:32:30.921Z,99860.19
2024-03-05T03:33:33.976Z,99863.66
2024-03-05T03:34:39.493Z,99859.66
2024-03-05T03:35:42.646Z,99863.94
2024-03-05T03:36:45.756Z,99856.06
2024-03-05T03:37:49.662Z,99858.00
2024-03-05T03:38:53.159Z,99857.56
2024-03-05T03:39:56.222Z,99867.09
2024-03-05T03:40:59.396Z,99867.38
2024-03-05T03:42:02.503Z,99870.69
2024-03-05T03:43:05.555Z,99862.44
2024-03-05T03:44:09.111Z,99870.69
2024-03-05T03:45:16.510Z,99868.78
2024-03-05T03:46:19.728Z,99866.28
2024-03-05T03:47:23.226Z,99870.94
2024-03-05T03:48:26.302Z,99871.13
2024-03-05T03:49:29.413Z,99872.09
2024-03-05T03:50:32.495Z,99867.13
2024-03-05T03:51:35.541Z,99876.22
2024-03-05T03:52:41.316Z,99871.81
2024-03-05T03:53:45.214Z,99877.88
2024-03-05T03:54:49.376Z,99877.06
2024-03-05T03:55:53.092Z,99875.38
2024-03-05T03:56:56.337Z,99873.16
2024-03-05T03:57:59.376Z,99876.78
2024-03-05T03:59:02.522Z,99874.44
2024-03-05T04:00:09.178Z,99869.06
2024-03-05T04:01:12.496Z,99870.41
2024-03-05T04:02:16.353Z,99872.22
2024-03-05T04:03:21.162Z,99869.03
2024-03-05T04:04:25.144Z,99870.66
2024-03-05T04:05:28.228Z,99872.59
2024-03-05T04:06:34.527Z,99873.69
2024-03-05T04:07:38.182Z,99877.00
2024-03-05T04:08:41.271Z,99875.75
2024-03-05T04:09:44.334Z,99881.56
2024-03-05T04:10:47.445Z,99876.16
2024-03-05T04:11:50.614Z,99876.16
2024-03-05T04:12:53.805Z,99877.78
2024-03-05T04:13:56.892Z,99874.22
2024-03-05T04:15:00.009Z,99866.88
2024-03-05T04:16:05.645Z,99865.25
2024-03-05T04:17:08.702Z,99868.69
2024-03-05T04:18:11.803Z,99873.13
2024-03-05T04:19:14.906Z,99871.31
2024-03-05T04:20:18.227Z,99862.75
2024-03-05T04:21:21.741Z,99870.03
2024-03-05T04:22:25.202Z,99868.09
2024-03-05T04:23:30.982Z,99869.50
2024-03-05T04:24:37.236Z,99869.50
2024-03-05T04:25:42.963Z,99869.63
2024-03-05T04:26:49.663Z,99866.19
2024-03-05T04:27:52.879Z,99868.81
2024-03-05T04:29:02.015Z,99865.47
2024-03-05T04:30:11.786Z,99862.91
2024-03-05T04:31:16.172Z,99873.66
2024-03-05T04:32:19.273Z,99866.47
2024-03-05T04:33:22.420Z,99867.81
2024-03-05T04:34:25.554Z,99866.31
2024-03-05T04:35:30.099Z,99867.16
2024-03-05T04:36:35.079Z,99868.50
2024-03-05T04:37:38.156Z,99867.53
2024-03-05T04:38:42.730Z,99872.78
2024-03-05T04:39:47.572Z,99865.47
2024-03-05T04:40:51.987Z,99869.78
2024-03-05T04:41:55.482Z,99871.44
2024-03-05T04:42:58.577Z,99868.38
2024-03-05T04:44:01.806Z,99868.50
2024-03-05T04:45:05.072Z,99875.13
2024-03-05T04:46:09.601Z,99866.13
2024-03-05T04:47:12.684Z,99866.28
2024-03-05T04:48:15.749Z,99868.91
2024-03-05T04:49:18.870Z,99882.44
2024-03-05T04:50:22.714Z,99869.03
2024-03-05T04:51:25.772Z,99876.91
2024-03-05T04:52:31.545Z,99869.78
2024-03-05T04:53:39.608Z,99872.41
2024-03-05T04:54:42.666Z,99869.50
2024-03-05T04:55:45.856Z,99878.72
2024-03-05T04:56:49.287Z,99876.09
2024-03-05T04:57:52.759Z,99873.88
2024-03-05T04:58:56.030Z,99870.03
2024-03-05T04:59:59.287Z,99871.72
2024-03-05T05:01:02.465Z,99875.03
2024-03-05T05:02:07.326Z,99871.13
2024-03-05T05:03:10.463Z,99874.75
2024-03-05T05:04:13.505Z,99875.69
2024-03-05T05:05:17.037Z,99871.13
2024-03-05T05:06:20.149Z,99871.13
2024-03-05T05:07:25.071Z,99873.44
2024-03-05T05:08:28.278Z,99879.66
2024-03-05T05:09:31.339Z,99879.53
2024-03-05T05:10:35.353Z,99875.28
2024-03-05T05:11:38.511Z,99880.38
2024-03-05T05:12:41.824Z,99877.75
2024-03-05T05:13:45.964Z,99880.94
2024-03-05T05:14:49.192Z,99878.59
2024-03-05T05:15:52.245Z,99878.13
2024-03-05T05:16:58.092Z,99873.88
2024-03-05T05:18:01.826Z,99880.75
2024-03-05T05:19:06.317Z,99879.50
2024-03-05T05:20:10.477Z,99879.34
2024-03-05T05:21:13.743Z,99881.84
2024-03-05T05:22:16.876Z,99878.53
2024-03-05T05:23:19.940Z,99883.09
2024-03-05T05:24:23.012Z,99882.13
2024-03-05T05:25:26.331Z,99884.59
2024-03-05T05:26:29.413Z,99888.41
2024-03-05T05:27:33.182Z,99891.03
2024-03-05T05:28:36.323Z,99887.56
2024-03-05T05:29:42.396Z,99887.00
2024-03-05T05:30:45.921Z,99890.72
2024-03-05T05:31:49.021Z,99885.78
2024-03-05T05:32:52.262Z,99895.72
2024-03-05T05:33:57.491Z,99900.00
2024-03-05T05:35:00.580Z,99901.66
2024-03-05T05:36:03.812Z,99900.97
2024-03-05T05:37:06.875Z,99897.50
2024-03-05T05:38:12.730Z,99896.41
2024-03-05T05:39:16.198Z,99904.84
2024-03-05T05:40:21.432Z,99901.28
2024-03-05T05:41:25.796Z,99905.13
2024-03-05T05:42:28.841Z,99907.06
2024-03-05T05:43:31.918Z,99905.28
2024-03-05T05:44:34.997Z,99905.81
2024-03-05T05:45:38.942Z,99905.38
2024-03-05T05:46:42.091Z,99914.78
2024-03-05T05:47:53.309Z,99910.38
2024-03-05T05:48:57.217Z,99909.34
2024-03-05T05:50:00.455Z,99911.97
2024-03-05T05:51:11.442Z,99912.94
2024-03-05T05:52:14.815Z,99906.47
2024-03-05T05:53:19.353Z,99912.94
2024-03-05T05:54:23.281Z,99913.19
2024-03-05T05:55:27.270Z,99916.38
2024-03-05T05:56:31.103Z,99912.19
2024-03-05T05:57:34.152Z,99907.63
2024-03-05T05:58:37.494Z,99910.53
2024-03-05T05:59:42.779Z,99911.88
2024-03-05T06:00:45.886Z,99908.81
2024-03-05T06:01:49.041Z,99912.94
2024-03-05T06:02:56.052Z,99908.81
2024-03-05T06:03:59.917Z,99907.00
2024-03-05T06:05:03.985Z,99908.91
2024-03-05T06:06:09.022Z,99907.34
2024-03-05T06:07:12.947Z,99913.72
2024-03-05T06:08:16.280Z,99912.59
2024-03-05T06:09:28.551Z,99914.50
2024-03-05T06:10:31.962Z,99914.19
2024-03-05T06:11:38.710Z,99913.06
2024-03-05T06:12:41.990Z,99917.22
2024-03-05T06:13:46.453Z,99916.41
2024-03-05T06:14:49.577Z,99911.78
2024-03-05T06:15:52.713Z,99915.97
2024-03-05T06:16:55.848Z,99917.16
2024-03-05T06:18:01.076Z,99918.53
2024-03-05T06:19:04.385Z,99917.25
2024-03-05T06:20:11.835Z,99912.00
2024-03-05T06:21:14.920Z,99915.31
2024-03-05T06:22:23.236Z,99916.38
2024-03-05T06:23:30.756Z,99917.72
2024-03-05T06:24:33.795Z,99920.59
2024-03-05T06:25:36.894Z,99916.97
2024-03-05T06:26:40.744Z,99916.16
2024-03-05T06:27:43.840Z,99918.41
2024-03-05T06:28:47.126Z,99922.16
2024-03-05T06:29:51.100Z,99921.03
2024-03-05T06:30:54.802Z,99918.41
2024-03-05T06:31:57.868Z,99922.03
2024-03-05T06:33:01.072Z,99920.66
2024-03-05T06:34:07.243Z,99922.84
2024-03-05T06:35:12.313Z,99921.94
2024-03-05T06:36:15.428Z,99927.72
2024-03-05T06:37:18.593Z,99933.53
2024-03-05T06:38:21.685Z,99937.34
2024-03-05T06:39:30.568Z,99925.41
2024-03-05T06:40:34.404Z,99940.41
2024-03-05T06:41:38.681Z,99936.13
2024-03-05T06:42:43.149Z,99932.25
2024-03-05T06:43:46.296Z,99935.84
2024-03-05T06:44:52.593Z,99939.97
2024-03-05T06:45:57.538Z,99943.19
2024-03-05T06:47:00.685Z,99948.44
2024-03-05T06:48:16.156Z,99939.59
2024-03-05T06:49:28.564Z,99939.13
2024-03-05T06:50:44.224Z,99943.34
2024-03-05T06:51:54.619Z,99947.94
2024-03-05T06:53:16.258Z,99942.22
2024-03-05T06:54:37.891Z,99947.41
2024-03-05T06:55:59.421Z,99943.78
2024-03-05T06:57:03.426Z,99952.56
2024-03-05T06:58:06.598Z,99943.72
2024-03-05T06:59:11.694Z,99947.31
2024-03-05T07:00:18.749Z,99945.56
2024-03-05T07:01:22.228Z,99944.13
2024-03-05T07:02:28.380Z,99948.63
2024-03-05T07:03:31.530Z,99953.97
2024-03-05T07:04:34.636Z,99951.06
2024-03-05T07:05:37.708Z,99951.59
2024-03-05T07:06:40.965Z,99952.78
2024-03-05T07:07:44.101Z,99957.06
2024-03-05T07:08:52.877Z,99958.88
2024-03-05T07:09:56.001Z,99957.25
2024-03-05T07:10:59.115Z,99957.44
2024-03-05T07:12:02.469Z,99952.09
2024-03-05T07:13:05.568Z,99956.84
2024-03-05T07:14:11.363Z,99953.34
2024-03-05T07:15:15.964Z,99959.13
2024-03-05T07:16:20.957Z,99960.16
2024-03-05T07:17:24.155Z,99966.13
2024-03-05T07:18:27.207Z,99956.44
2024-03-05T07:19:31.608Z,99964.53
2024-03-05T07:20:35.830Z,99968.72
2024-03-05T07:21:38.985Z,99966.13
2024-03-05T07:22:42.277Z,99967.16
2024-03-05T07:23:47.461Z,99964.88
2024-03-05T07:24:53.436Z,99968.78
2024-03-05T07:25:57.487Z,99967.50
2024-03-05T07:27:07.915Z,99969.22
2024-03-05T07:28:12.071Z,99964.44
2024-03-05T07:29:15.151Z,99969.25
2024-03-05T07:30:19.841Z,99975.00
2024-03-05T07:31:25.364Z,99966.94
2024-03-05T07:32:28.614Z,99974.16
2024-03-05T07:33:34.360Z,99979.34
2024-03-05T07:34:37.828Z,99974.06
2024-03-05T07:35:43.732Z,99975.59
2024-03-05T07:36:46.805Z,99981.47
2024-03-05T07:37:50.145Z,99975.91
2024-03-05T07:38:54.199Z,99980.38
2024-03-05T07:39:57.420Z,99979.97
2024-03-05T07:41:01.565Z,99983.97
2024-03-05T07:42:05.650Z,99982.81
2024-03-05T07:43:09.940Z,99982.44
2024-03-05T07:44:13.059Z,99977.50
2024-03-05T07:45:17.367Z,99981.41
2024-03-05T07:46:20.670Z,99985.25
2024-03-05T07:47:23.858Z,99983.25
2024-03-05T07:48:26.919Z,99978.00
2024-03-05T07:49:30.063Z,99985.53
2024-03-05T07:50:33.280Z,99985.56
2024-03-05T07:51:41.872Z,99981.97
2024-03-05T07:52:51.839Z,99985.59
2024-03-05T07:53:55.056Z,99984.16
2024-03-05T07:54:58.943Z,99986.78
2024-03-05T07:56:02.168Z,99984.16
2024-03-05T07:57:05.348Z,99991.75
2024-03-05T07:58:08.640Z,99988.81
2024-03-05T07:59:11.866Z,99987.88
2024-03-05T08:00:15.342Z,99985.91
2024-03-05T08:01:18.457Z,99996.50
2024-03-05T08:02:22.376Z,99992.31
2024-03-05T08:03:25.493Z,99996.97
2024-03-05T08:04:29.759Z,99986.72
2024-03-05T08:05:32.843Z,99996.00
2024-03-05T08:06:36.003Z,99993.38
2024-03-05T08:07:40.960Z,99988.78
2024-03-05T08:08:44.057Z,99988.63
2024-03-05T08:09:47.126Z,99991.56
2024-03-05T08:10:50.472Z,99993.94
2024-03-05T08:11:53.667Z,99994.22
2024-03-05T08:12:57.764Z,99994.47
2024-03-05T08:14:00.951Z,99990.84
2024-03-05T08:15:08.272Z,99989.50
2024-03-05T08:16:11.671Z,99990.47
2024-03-05T08:17:14.722Z,99989.91
2024-03-05T08:18:17.853Z,99997.97
2024-03-05T08:19:21.199Z,99991.38
2024-03-05T08:20:27.035Z,99986.28
2024-03-05T08:21:30.217Z,99995.22
2024-03-05T08:22:33.336Z,99994.69
2024-03-05T08:23:36.843Z,99985.06
2024-03-05T08:24:40.025Z,99993.47
2024-03-05T08:25:46.093Z,99994.31
2024-03-05T08:26:50.773Z,99992.47
2024-03-05T08:27:59.619Z,100001.50
2024-03-05T08:29:02.969Z,99987.69
2024-03-05T08:30:12.479Z,99993.78
2024-03-05T08:31:16.131Z,100000.88
2024-03-05T08:32:19.212Z,99995.53
2024-03-05T08:33:25.067Z,99990.09
2024-03-05T08:34:28.536Z,99993.97
2024-03-05T08:35:32.530Z,100002.31
2024-03-05T08:36:38.429Z,99998.22
2024-03-05T08:37:47.638Z,99999.44
2024-03-05T08:38:51.071Z,100000.97
2024-03-05T08:39:54.137Z,100000.47
2024-03-05T08:40:57.239Z,100004.41
2024-03-05T08:42:00.318Z,99997.56
2024-03-05T08:43:05.321Z,99997.88
2024-03-05T08:44:08.817Z,99995.50
2024-03-05T08:45:13.826Z,100002.53
2024-03-05T08:46:17.058Z,100002.53
2024-03-05T08:47:20.273Z,100001.94
2024-03-05T08:48:23.339Z,100000.38
2024-03-05T08:49:26.868Z,100003.81
2024-03-05T08:50:31.108Z,100002.56
2024-03-05T08:51:39.433Z,99996.03
2024-03-05T08:52:43.109Z,99999.06
2024-03-05T08:53:46.279Z,99999.53
2024-03-05T08:54:49.342Z,100003.91
2024-03-05T08:55:55.165Z,99999.63
2024-03-05T08:57:01.185Z,100001.44
2024-03-05T08:58:05.152Z,99998.41
2024-03-05T08:59:08.488Z,100006.44
2024-03-05T09:00:27.076Z,100006.19
2024-03-05T09:01:40.372Z,99999.28
2024-03-05T09:02:46.539Z,100002.88
2024-03-05T09:03:50.646Z,100005.19
2024-03-05T09:04:53.851Z,100005.28
2024-03-05T09:05:56.944Z,100005.16
2024-03-05T09:06:59.999Z,100003.66
2024-03-05T09:08:03.358Z,100005.50
2024-03-05T09:09:07.025Z,100002.41
2024-03-05T09:10:11.599Z,99998.13
2024-03-05T09:11:14.888Z,99995.38
2024-03-05T09:12:18.647Z,99995.00
2024-03-05T09:13:21.765Z,99999.31
2024-03-05T09:14:26.266Z,100002.38
2024-03-05T09:15:29.351Z,99994.19
2024-03-05T09:16:32.902Z,99996.25
2024-03-05T09:17:35.987Z,99995.44
2024-03-05T09:18:39.117Z,99996.69
2024-03-05T09:19:45.610Z,99987.22
2024-03-05T09:20:48.751Z,99993.19
2024-03-05T09:21:51.812Z,99995.44
2024-03-05T09:22:54.915Z,99992.13
2024-03-05T09:23:58.026Z,99989.69
2024-03-05T09:25:01.066Z,99992.06
2024-03-05T09:26:05.247Z,99990.88
2024-03-05T09:27:08.370Z,99991.91
2024-03-05T09:28:12.023Z,99986.38
2024-03-05T09:29:16.526Z,99987.22
2024-03-05T09:30:20.923Z,99990.88
2024-03-05T09:31:24.050Z,99989.81
2024-03-05T09:32:27.188Z,99995.38
2024-03-05T09:33:33.122Z,99985.13
2024-03-05T09:34:36.182Z,99988.03
2024-03-05T09:35:40.178Z,99994.59
2024-03-05T09:36:43.223Z,99990.09
2024-03-05T09:37:47.075Z,99990.53
2024-03-05T09:38:50.837Z,99982.69
2024-03-05T09:39:55.146Z,99986.78
2024-03-05T09:40:58.443Z,99990.47
2024-03-05T09:42:01.560Z,99990.41
2024-03-05T09:43:06.040Z,99985.94
2024-03-05T09:44:10.393Z,99989.69
2024-03-05T09:45:17.927Z,99989.06
2024-03-05T09:46:22.309Z,99993.22
2024-03-05T09:47:26.127Z,99990.31
2024-03-05T09:48:30.019Z,99987.22
2024-03-05T09:49:33.481Z,99985.53
2024-03-05T09:50:38.386Z,99991.59
2024-03-05T09:51:42.529Z,99983.50
2024-03-05T09:52:48.517Z,99984.34
2024-03-05T09:53:54.213Z,99988.63
2024-03-05T09:54:57.299Z,99989.47
2024-03-05T09:56:00.544Z,99987.59
2024-03-05T09:57:06.472Z,99991.06
2024-03-05T09:58:13.065Z,99996.59
2024-03-05T09:59:17.813Z,99991.19
2024-03-05T10:00:22.403Z,99993.66
2024-03-05T10:01:25.841Z,99992.34
2024-03-05T10:02:30.152Z,99989.97
2024-03-05T10:03:35.582Z,99991.31
2024-03-05T10:04:43.261Z,99991.66
2024-03-05T10:05:46.306Z,99985.56
2024-03-05T10:06:50.657Z,99986.09
2024-03-05T10:07:53.816Z,99988.34
2024-03-05T10:08:56.916Z,99988.41
2024-03-05T10:10:05.251Z,99988.97
2024-03-05T10:11:08.462Z,99991.59
2024-03-05T10:12:14.065Z,99992.06
2024-03-05T10:13:18.600Z,99995.59
2024-03-05T10:14:25.464Z,99992.88
2024-03-05T10:15:28.746Z,99994.88
2024-03-05T10:16:31.870Z,99990.81
2024-03-05T10:17:51.202Z,99984.66
2024-03-05T10:18:54.539Z,99984.06
2024-03-05T10:19:57.740Z,99986.06
2024-03-05T10:21:21.825Z,99985.88
2024-03-05T10:22:24.978Z,99977.53
2024-03-05T10:23:29.328Z,99987.78
2024-03-05T10:24:32.898Z,99984.78
2024-03-05T10:25:37.382Z,99987.22
2024-03-05T10:26:42.354Z,99990.84
2024-03-05T10:27:55.414Z,99990.63
2024-03-05T10:29:01.868Z,99989.22
2024-03-05T10:30:05.865Z,99986.91
2024-03-05T10:31:08.936Z,99990.88
2024-03-05T10:32:17.759Z,99989.78
2024-03-05T10:33:24.251Z,99992.03
2024-03-05T10:34:27.640Z,99994.94
2024-03-05T10:35:32.947Z,99988.38
2024-03-05T10:36:44.208Z,99995.00
2024-03-05T10:38:17.854Z,99992.28
2024-03-05T10:39:21.429Z,99993.34
2024-03-05T10:40:26.239Z,99999.13
2024-03-05T10:41:43.491Z,99991.94
2024-03-05T10:42:54.470Z,99995.81
2024-03-05T10:44:01.866Z,99985.94
2024-03-05T10:45:08.170Z,99986.78
2024-03-05T10:46:11.530Z,99986.94
2024-03-05T10:47:15.377Z,99990.66
2024-03-05T10:48:21.964Z,99990.28
2024-03-05T10:49:25.639Z,99988.84
2024-03-05T10:50:29.938Z,99993.38
2024-03-05T10:51:39.913Z,99982.25
2024-03-05T10:52:45.080Z,99986.38
2024-03-05T10:53:51.854Z,99986.59
2024-03-05T10:54:58.165Z,99984.91
2024-03-05T10:56:01.817Z,99984.13
2024-03-05T10:57:07.100Z,99992.06
2024-03-05T10:58:14.928Z,99980.63
2024-03-05T10:59:34.991Z,99985.56
2024-03-05T11:00:42.850Z,99985.56
2024-03-05T11:01:47.048Z,99983.28
2024-03-05T11:02:50.936Z,99987.16
2024-03-05T11:03:56.514Z,99984.06
2024-03-05T11:05:02.822Z,99981.63
2024-03-05T11:06:07.574Z,99980.78
2024-03-05T11:07:12.405Z,99983.88
2024-03-05T11:08:20.393Z,99984.69
2024-03-05T11:09:25.334Z,99988.19
2024-03-05T11:10:30.880Z,99981.03
2024-03-05T11:11:34.646Z,99984.69
2024-03-05T11:12:37.785Z,99975.50
2024-03-05T11:13:42.513Z,99980.22
2024-03-05T11:14:47.699Z,99977.31
2024-03-05T11:15:52.065Z,99972.59
2024-03-05T11:17:05.147Z,99973.84
2024-03-05T11:18:45.891Z,99970.31
2024-03-05T11:19:49.487Z,99978.50
2024-03-05T11:20:54.977Z,99977.25
2024-03-05T11:22:00.070Z,99974.00
2024-03-05T11:23:06.423Z,99978.91
2024-03-05T11:24:09.584Z,99971.16
2024-03-05T11:25:34.480Z,99972.00
2024-03-05T11:26:41.010Z,99968.56
2024-03-05T11:27:49.418Z,99975.47
2024-03-05T11:29:02.365Z,99976.06
2024-03-05T11:30:18.238Z,99975.22
2024-03-05T11:31:22.427Z,99972.38
2024-03-05T11:32:29.872Z,99972.38
2024-03-05T11:33:33.030Z,99971.94
2024-03-05T11:34:36.866Z,99971.94
2024-03-05T11:35:45.668Z,99979.13
2024-03-05T11:37:12.178Z,99969.06
2024-03-05T11:38:20.259Z,99970.94
2024-03-05T11:39:29.253Z,99964.63
2024-03-05T11:40:34.538Z,99972.97
2024-03-05T11:41:42.733Z,99975.22
2024-03-05T11:42:49.486Z,99969.47
2024-03-05T11:43:53.581Z,99965.97
2024-03-05T11:44:56.707Z,99968.66
2024-03-05T11:45:59.760Z,99974.03
2024-03-05T11:47:04.534Z,99965.97
2024-03-05T11:48:12.243Z,99968.19
2024-03-05T11:49:17.825Z,99974.34
2024-03-05T11:50:21.655Z,99967.22
2024-03-05T11:51:24.727Z,99962.03
2024-03-05T11:52:29.288Z,99967.75
2024-03-05T11:53:37.334Z,99974.00
2024-03-05T11:54:40.428Z,99965.13
2024-03-05T11:55:43.970Z,99966.97
2024-03-05T11:56:59.605Z,99970.94
2024-03-05T11:58:03.694Z,99969.47
2024-03-05T11:59:06.929Z,99963.13
2024-03-05T12:00:18.038Z,99967.03
2024-03-05T12:01:24.523Z,99962.47
2024-03-05T12:02:28.875Z,99966.63
2024-03-05T12:03:32.177Z,99967.03
2024-03-05T12:04:35.884Z,99960.69
2024-03-05T12:05:44.749Z,99962.72
2024-03-05T12:06:47.989Z,99960.22
2024-03-05T12:08:08.207Z,99960.69
2024-03-05T12:09:20.173Z,99964.81
2024-03-05T12:10:27.426Z,99953.09
2024-03-05T12:11:30.890Z,99955.53
2024-03-05T12:12:34.048Z,99953.88
2024-03-05T12:13:37.135Z,99959.19
2024-03-05T12:14:54.636Z,99962.44
2024-03-05T12:16:11.347Z,99952.19
2024-03-05T12:17:15.331Z,99961.03
2024-03-05T12:18:18.638Z,99955.09
2024-03-05T12:19:21.758Z,99961.44
2024-03-05T12:20:25.509Z,99949.72
2024-03-05T12:21:33.612Z,99956.13
2024-03-05T12:22:38.822Z,99956.53
2024-03-05T12:23:43.471Z,99954.28
2024-03-05T12:24:48.074Z,99950.97
2024-03-05T12:25:52.701Z,99955.53
2024-03-05T12:27:00.219Z,99957.19
2024-03-05T12:28:03.549Z,99949.22
2024-03-05T12:29:08.192Z,99953.94
2024-03-05T12:30:12.034Z,99952.09
2024-03-05T12:31:15.117Z,99958.06
2024-03-05T12:32:20.351Z,99953.97
2024-03-05T12:33:24.230Z,99949.84
2024-03-05T12:34:28.567Z,99960.91
2024-03-05T12:35:32.211Z,99959.66
2024-03-05T12:36:35.356Z,99958.47
2024-03-05T12:37:40.902Z,99955.19
2024-03-05T12:38:44.234Z,99964.00
2024-03-05T12:39:47.298Z,99957.41